Valley Head, AL

10:54 AM CST on February 27, 2015 (GMT -0600)
APRSWXNET Mentone AL US | Change Station
CLOSE
Current Station
Personal Weather Station
Location: Valley Head, AL
Elevation: 1721 ft
Nearby Weather Stations

Elev 1721 ft 34.53 °N, 85.63 °W | Updated 26 minutes ago

Mostly Cloudy
Mostly Cloudy
27 °F
Feels Like 22 °F
N
4
Wind Variable Wind from NNW
Gusts 7.0 mph

Today
High -- | Low -- °F
--% Chance of Precip.
Yesterday
High -- | Low -- °F
Precip. -- in
6:14 AM 5:36 PM
Waxing Gibbous, 70% visible
Pressure 30.45 in
Visibility 10.0 miles
Clouds Clear
Windchill 22 °F
Dew Point 21 °F
Humidity 78%
Rainfall 0.09 in
Snow Depth Not available.
UV 6 out of 12
Pollen 3.30 out of 12
Air Quality Not available.
Flu Activity Not available.
METAR K4A9 271635Z AUTO 02007KT 10SM CLR 00/M08 A3045 RMK AO2

More Conditions Fewer Conditions

Pressure 30.45 in
Visibility 10.0 miles
Clouds Clear
Windchill 22 °F
Dew Point 21 °F
Humidity 78%
Rainfall 0.09 in
Snow Depth Not available.
UV 6 out of 12
Pollen 3.30 out of 12
Air Quality Not available.
Flu Activity Not available.
METAR K4A9 271635Z AUTO 02007KT 10SM CLR 00/M08 A3045 RMK AO2

More Conditions Fewer Conditions

10-Day Weather Forecast

Almanac

Astronomy

Feb. 27, 2015 Rise Set
Actual Time
Civil Twilight
Nautical Twilight
Astronomical Twilight
Moon
Length of Visible Light
Length of Day
Tomorrow will be .
, % of the Moon is Illuminated

Today's Extremes

State Highs State Lows

Community

WunderPhotos

Upload Photos

1,800,732 photos uploaded!

WunderBlogs® & News

Nearby

Air Quality

  Air Quality AQ Index Pollutant
Not available.

Snow Depth

Station Depth Elevation

Earthquake Activity

City Distance Mag. Time & Date
Minimum magnitude displayed is 2.5.

Coastal Water Temperatures

Place Temperature

Nearby Weather Stations